sensor_id;sensor_type;location;lat;lon;timestamp;P1;durP1;ratioP1;P2;durP2;ratioP2
36001;SDS011;22070;50.922;5.430;2024-03-25T00:01:00;8.90;;;2.58;;
36001;SDS011;22070;50.922;5.430;2024-03-25T00:03:26;7.47;;;2.20;;
36001;SDS011;22070;50.922;5.430;2024-03-25T00:05:51;3.83;;;1.88;;
36001;SDS011;22070;50.922;5.430;2024-03-25T00:08:17;10.63;;;2.23;;
36001;SDS011;22070;50.922;5.430;2024-03-25T00:10:43;6.43;;;2.40;;
36001;SDS011;22070;50.922;5.430;2024-03-25T00:13:08;7.03;;;2.10;;
36001;SDS011;22070;50.922;5.430;2024-03-25T00:18:02;8.20;;;2.70;;
36001;SDS011;22070;50.922;5.430;2024-03-25T00:20:28;6.55;;;1.58;;
36001;SDS011;22070;50.922;5.430;2024-03-25T00:22:54;8.18;;;2.05;;
36001;SDS011;22070;50.922;5.430;2024-03-25T00:25:20;6.73;;;2.47;;
36001;SDS011;22070;50.922;5.430;2024-03-25T00:27:45;9.33;;;2.27;;
36001;SDS011;22070;50.922;5.430;2024-03-25T00:30:11;13.55;;;3.33;;
36001;SDS011;22070;50.922;5.430;2024-03-25T00:32:37;7.25;;;2.10;;
36001;SDS011;22070;50.922;5.430;2024-03-25T00:35:03;8.60;;;2.37;;
36001;SDS011;22070;50.922;5.430;2024-03-25T00:37:29;9.60;;;2.55;;
36001;SDS011;22070;50.922;5.430;2024-03-25T00:39:55;6.87;;;2.70;;
36001;SDS011;22070;50.922;5.430;2024-03-25T00:42:20;12.13;;;2.70;;
36001;SDS011;22070;50.922;5.430;2024-03-25T00:44:46;10.93;;;2.80;;
36001;SDS011;22070;50.922;5.430;2024-03-25T00:47:11;8.50;;;2.10;;
36001;SDS011;22070;50.922;5.430;2024-03-25T00:49:37;15.77;;;2.93;;
36001;SDS011;22070;50.922;5.430;2024-03-25T00:52:03;8.60;;;2.40;;
36001;SDS011;22070;50.922;5.430;2024-03-25T00:54:29;8.07;;;2.55;;
36001;SDS011;22070;50.922;5.430;2024-03-25T00:56:55;12.97;;;2.77;;
36001;SDS011;22070;50.922;5.430;2024-03-25T00:59:21;14.82;;;2.75;;
36001;SDS011;22070;50.922;5.430;2024-03-25T01:01:47;8.87;;;3.13;;
36001;SDS011;22070;50.922;5.430;2024-03-25T01:04:12;12.53;;;3.27;;
36001;SDS011;22070;50.922;5.430;2024-03-25T01:06:38;11.32;;;2.72;;
36001;SDS011;22070;50.922;5.430;2024-03-25T01:09:04;6.23;;;2.77;;
36001;SDS011;22070;50.922;5.430;2024-03-25T01:11:29;9.70;;;2.60;;
36001;SDS011;22070;50.922;5.430;2024-03-25T01:13:55;6.57;;;2.20;;
36001;SDS011;22070;50.922;5.430;2024-03-25T01:16:21;19.10;;;2.67;;
36001;SDS011;22070;50.922;5.430;2024-03-25T01:18:47;8.90;;;2.90;;
36001;SDS011;22070;50.922;5.430;2024-03-25T01:21:13;4.37;;;2.37;;
36001;SDS011;22070;50.922;5.430;2024-03-25T01:23:39;6.90;;;2.38;;
36001;SDS011;22070;50.922;5.430;2024-03-25T01:26:05;9.40;;;2.63;;
36001;SDS011;22070;50.922;5.430;2024-03-25T01:28:31;10.05;;;2.75;;
36001;SDS011;22070;50.922;5.430;2024-03-25T01:30:57;5.65;;;2.28;;
36001;SDS011;22070;50.922;5.430;2024-03-25T01:33:23;7.60;;;2.55;;
36001;SDS011;22070;50.922;5.430;2024-03-25T01:35:49;5.53;;;2.30;;
36001;SDS011;22070;50.922;5.430;2024-03-25T01:38:14;9.27;;;2.93;;
36001;SDS011;22070;50.922;5.430;2024-03-25T01:40:40;6.80;;;2.70;;
36001;SDS011;22070;50.922;5.430;2024-03-25T01:43:06;11.95;;;2.42;;
36001;SDS011;22070;50.922;5.430;2024-03-25T01:45:33;12.40;;;2.50;;
36001;SDS011;22070;50.922;5.430;2024-03-25T01:48:04;4.15;;;2.13;;
36001;SDS011;22070;50.922;5.430;2024-03-25T01:50:33;7.82;;;2.28;;
36001;SDS011;22070;50.922;5.430;2024-03-25T01:53:01;8.15;;;2.53;;
36001;SDS011;22070;50.922;5.430;2024-03-25T02:00:20;5.72;;;1.52;;
36001;SDS011;22070;50.922;5.430;2024-03-25T02:02:49;6.63;;;2.30;;
36001;SDS011;22070;50.922;5.430;2024-03-25T02:05:16;4.05;;;2.10;;
36001;SDS011;22070;50.922;5.430;2024-03-25T02:07:43;5.65;;;2.20;;
36001;SDS011;22070;50.922;5.430;2024-03-25T02:10:09;4.50;;;1.92;;
36001;SDS011;22070;50.922;5.430;2024-03-25T02:12:36;3.97;;;1.98;;
36001;SDS011;22070;50.922;5.430;2024-03-25T02:15:03;5.38;;;2.10;;
36001;SDS011;22070;50.922;5.430;2024-03-25T02:17:30;9.80;;;2.05;;
36001;SDS011;22070;50.922;5.430;2024-03-25T02:19:56;1.83;;;1.13;;
36001;SDS011;22070;50.922;5.430;2024-03-25T02:22:21;6.18;;;2.10;;
36001;SDS011;22070;50.922;5.430;2024-03-25T02:27:15;8.20;;;1.95;;
36001;SDS011;22070;50.922;5.430;2024-03-25T02:29:42;4.25;;;2.10;;
36001;SDS011;22070;50.922;5.430;2024-03-25T02:32:07;4.23;;;2.20;;
36001;SDS011;22070;50.922;5.430;2024-03-25T02:34:37;4.70;;;1.85;;
36001;SDS011;22070;50.922;5.430;2024-03-25T02:37:03;8.23;;;2.03;;
36001;SDS011;22070;50.922;5.430;2024-03-25T02:39:29;4.53;;;2.08;;
36001;SDS011;22070;50.922;5.430;2024-03-25T02:41:55;3.47;;;2.00;;
36001;SDS011;22070;50.922;5.430;2024-03-25T02:44:22;7.78;;;2.03;;
36001;SDS011;22070;50.922;5.430;2024-03-25T02:46:48;7.13;;;2.08;;
36001;SDS011;22070;50.922;5.430;2024-03-25T02:49:14;9.27;;;2.55;;
36001;SDS011;22070;50.922;5.430;2024-03-25T02:51:40;8.13;;;2.37;;
36001;SDS011;22070;50.922;5.430;2024-03-25T02:54:05;10.23;;;2.33;;
36001;SDS011;22070;50.922;5.430;2024-03-25T02:56:31;9.03;;;2.83;;
36001;SDS011;22070;50.922;5.430;2024-03-25T02:58:57;7.25;;;2.08;;
36001;SDS011;22070;50.922;5.430;2024-03-25T03:01:22;5.95;;;2.50;;
36001;SDS011;22070;50.922;5.430;2024-03-25T03:03:48;6.00;;;1.93;;
36001;SDS011;22070;50.922;5.430;2024-03-25T03:06:13;13.33;;;2.67;;
36001;SDS011;22070;50.922;5.430;2024-03-25T03:08:39;9.57;;;2.30;;
36001;SDS011;22070;50.922;5.430;2024-03-25T03:11:05;6.53;;;2.80;;
36001;SDS011;22070;50.922;5.430;2024-03-25T03:13:30;4.87;;;2.17;;
36001;SDS011;22070;50.922;5.430;2024-03-25T03:15:56;10.33;;;2.60;;
36001;SDS011;22070;50.922;5.430;2024-03-25T03:18:21;4.57;;;2.43;;
36001;SDS011;22070;50.922;5.430;2024-03-25T03:20:47;5.93;;;2.15;;
36001;SDS011;22070;50.922;5.430;2024-03-25T03:23:14;3.90;;;2.38;;
36001;SDS011;22070;50.922;5.430;2024-03-25T03:25:40;7.20;;;2.17;;
36001;SDS011;22070;50.922;5.430;2024-03-25T03:28:06;6.10;;;2.47;;
36001;SDS011;22070;50.922;5.430;2024-03-25T03:30:31;11.57;;;2.27;;
36001;SDS011;22070;50.922;5.430;2024-03-25T03:32:57;10.90;;;2.28;;
36001;SDS011;22070;50.922;5.430;2024-03-25T03:35:22;10.47;;;2.10;;
36001;SDS011;22070;50.922;5.430;2024-03-25T03:37:48;7.55;;;2.67;;
36001;SDS011;22070;50.922;5.430;2024-03-25T03:40:14;6.27;;;2.03;;
36001;SDS011;22070;50.922;5.430;2024-03-25T03:42:39;7.93;;;2.43;;
36001;SDS011;22070;50.922;5.430;2024-03-25T03:45:07;5.23;;;2.47;;
36001;SDS011;22070;50.922;5.430;2024-03-25T03:47:33;7.78;;;2.50;;
36001;SDS011;22070;50.922;5.430;2024-03-25T03:49:58;5.93;;;2.43;;
36001;SDS011;22070;50.922;5.430;2024-03-25T03:52:24;8.03;;;2.13;;
36001;SDS011;22070;50.922;5.430;2024-03-25T03:54:49;4.77;;;2.23;;
36001;SDS011;22070;50.922;5.430;2024-03-25T03:57:15;7.87;;;2.53;;
36001;SDS011;22070;50.922;5.430;2024-03-25T03:59:41;7.70;;;3.20;;
36001;SDS011;22070;50.922;5.430;2024-03-25T04:02:07;7.60;;;2.23;;
36001;SDS011;22070;50.922;5.430;2024-03-25T04:04:33;8.75;;;2.33;;
36001;SDS011;22070;50.922;5.430;2024-03-25T04:06:59;7.72;;;2.33;;
36001;SDS011;22070;50.922;5.430;2024-03-25T04:11:54;4.35;;;2.03;;
36001;SDS011;22070;50.922;5.430;2024-03-25T04:14:20;5.33;;;2.20;;
36001;SDS011;22070;50.922;5.430;2024-03-25T04:16:45;8.63;;;2.47;;
36001;SDS011;22070;50.922;5.430;2024-03-25T04:19:12;3.67;;;2.05;;
36001;SDS011;22070;50.922;5.430;2024-03-25T04:21:38;4.43;;;2.17;;
36001;SDS011;22070;50.922;5.430;2024-03-25T04:24:04;5.70;;;2.50;;
36001;SDS011;22070;50.922;5.430;2024-03-25T04:26:31;4.30;;;1.80;;
36001;SDS011;22070;50.922;5.430;2024-03-25T04:28:56;5.97;;;2.40;;
36001;SDS011;22070;50.922;5.430;2024-03-25T04:31:22;5.40;;;2.53;;
36001;SDS011;22070;50.922;5.430;2024-03-25T04:33:48;3.23;;;2.23;;
36001;SDS011;22070;50.922;5.430;2024-03-25T04:36:13;7.35;;;2.78;;
36001;SDS011;22070;50.922;5.430;2024-03-25T04:38:39;5.93;;;2.53;;
36001;SDS011;22070;50.922;5.430;2024-03-25T04:41:05;6.80;;;3.20;;
36001;SDS011;22070;50.922;5.430;2024-03-25T04:43:30;15.63;;;3.05;;
36001;SDS011;22070;50.922;5.430;2024-03-25T04:46:00;4.77;;;2.00;;
36001;SDS011;22070;50.922;5.430;2024-03-25T04:48:26;5.90;;;2.58;;
36001;SDS011;22070;50.922;5.430;2024-03-25T04:50:51;10.87;;;2.97;;
36001;SDS011;22070;50.922;5.430;2024-03-25T04:53:17;8.80;;;2.50;;
36001;SDS011;22070;50.922;5.430;2024-03-25T04:55:42;6.47;;;2.77;;
36001;SDS011;22070;50.922;5.430;2024-03-25T04:58:08;5.33;;;2.60;;
36001;SDS011;22070;50.922;5.430;2024-03-25T05:00:34;8.57;;;3.13;;
36001;SDS011;22070;50.922;5.430;2024-03-25T05:02:59;6.27;;;2.67;;
36001;SDS011;22070;50.922;5.430;2024-03-25T05:05:25;4.80;;;2.70;;
36001;SDS011;22070;50.922;5.430;2024-03-25T05:07:51;6.40;;;2.57;;
36001;SDS011;22070;50.922;5.430;2024-03-25T05:10:16;6.70;;;2.97;;
36001;SDS011;22070;50.922;5.430;2024-03-25T05:12:42;5.57;;;2.07;;
36001;SDS011;22070;50.922;5.430;2024-03-25T05:17:34;6.17;;;2.43;;
36001;SDS011;22070;50.922;5.430;2024-03-25T05:20:00;5.27;;;2.40;;
36001;SDS011;22070;50.922;5.430;2024-03-25T05:22:26;6.30;;;2.90;;
36001;SDS011;22070;50.922;5.430;2024-03-25T05:24:51;7.80;;;2.20;;
36001;SDS011;22070;50.922;5.430;2024-03-25T05:27:17;6.03;;;2.57;;
36001;SDS011;22070;50.922;5.430;2024-03-25T05:29:43;7.27;;;2.70;;
36001;SDS011;22070;50.922;5.430;2024-03-25T05:32:08;8.13;;;2.83;;
36001;SDS011;22070;50.922;5.430;2024-03-25T05:34:34;8.45;;;2.58;;
36001;SDS011;22070;50.922;5.430;2024-03-25T05:39:26;9.47;;;2.90;;
36001;SDS011;22070;50.922;5.430;2024-03-25T05:41:52;6.07;;;3.30;;
36001;SDS011;22070;50.922;5.430;2024-03-25T05:44:17;4.95;;;2.38;;
36001;SDS011;22070;50.922;5.430;2024-03-25T05:46:43;7.13;;;3.33;;
36001;SDS011;22070;50.922;5.430;2024-03-25T05:49:09;9.57;;;3.33;;
36001;SDS011;22070;50.922;5.430;2024-03-25T05:51:34;8.60;;;3.63;;
36001;SDS011;22070;50.922;5.430;2024-03-25T05:54:00;9.35;;;3.63;;
36001;SDS011;22070;50.922;5.430;2024-03-25T05:56:26;10.13;;;4.35;;
36001;SDS011;22070;50.922;5.430;2024-03-25T05:58:56;12.25;;;4.05;;
36001;SDS011;22070;50.922;5.430;2024-03-25T06:01:22;8.95;;;3.83;;
36001;SDS011;22070;50.922;5.430;2024-03-25T06:03:48;11.23;;;3.50;;
36001;SDS011;22070;50.922;5.430;2024-03-25T06:06:14;9.32;;;3.67;;
36001;SDS011;22070;50.922;5.430;2024-03-25T06:08:39;15.03;;;4.67;;
36001;SDS011;22070;50.922;5.430;2024-03-25T06:11:05;11.87;;;4.10;;
36001;SDS011;22070;50.922;5.430;2024-03-25T06:13:31;9.95;;;4.43;;
36001;SDS011;22070;50.922;5.430;2024-03-25T06:15:57;13.97;;;4.87;;
36001;SDS011;22070;50.922;5.430;2024-03-25T06:18:22;12.33;;;4.60;;
36001;SDS011;22070;50.922;5.430;2024-03-25T06:20:48;15.83;;;5.07;;
36001;SDS011;22070;50.922;5.430;2024-03-25T06:23:23;11.57;;;4.70;;
36001;SDS011;22070;50.922;5.430;2024-03-25T06:25:49;12.68;;;5.15;;
36001;SDS011;22070;50.922;5.430;2024-03-25T06:28:16;13.65;;;5.05;;
36001;SDS011;22070;50.922;5.430;2024-03-25T06:30:42;12.30;;;5.53;;
36001;SDS011;22070;50.922;5.430;2024-03-25T06:33:26;15.60;;;6.10;;
36001;SDS011;22070;50.922;5.430;2024-03-25T06:36:10;13.43;;;5.80;;
36001;SDS011;22070;50.922;5.430;2024-03-25T06:38:35;9.73;;;4.27;;
36001;SDS011;22070;50.922;5.430;2024-03-25T06:41:01;13.67;;;5.87;;
36001;SDS011;22070;50.922;5.430;2024-03-25T06:43:27;13.02;;;5.82;;
36001;SDS011;22070;50.922;5.430;2024-03-25T06:45:53;14.13;;;5.80;;
36001;SDS011;22070;50.922;5.430;2024-03-25T06:48:18;12.30;;;5.95;;
36001;SDS011;22070;50.922;5.430;2024-03-25T06:51:02;15.73;;;5.93;;
36001;SDS011;22070;50.922;5.430;2024-03-25T06:53:28;16.13;;;5.85;;
36001;SDS011;22070;50.922;5.430;2024-03-25T06:55:54;18.33;;;5.70;;
36001;SDS011;22070;50.922;5.430;2024-03-25T06:58:21;21.55;;;7.10;;
36001;SDS011;22070;50.922;5.430;2024-03-25T07:00:47;17.50;;;6.07;;
36001;SDS011;22070;50.922;5.430;2024-03-25T07:03:23;23.30;;;6.82;;
36001;SDS011;22070;50.922;5.430;2024-03-25T07:05:50;13.50;;;5.53;;
36001;SDS011;22070;50.922;5.430;2024-03-25T07:08:20;19.13;;;5.90;;
36001;SDS011;22070;50.922;5.430;2024-03-25T07:10:46;21.02;;;5.88;;
36001;SDS011;22070;50.922;5.430;2024-03-25T07:13:12;20.88;;;5.43;;
36001;SDS011;22070;50.922;5.430;2024-03-25T07:15:38;11.60;;;5.53;;
36001;SDS011;22070;50.922;5.430;2024-03-25T07:18:04;18.80;;;5.70;;
36001;SDS011;22070;50.922;5.430;2024-03-25T07:20:30;17.73;;;5.67;;
36001;SDS011;22070;50.922;5.430;2024-03-25T07:22:56;24.03;;;5.20;;
36001;SDS011;22070;50.922;5.430;2024-03-25T07:25:22;21.42;;;5.60;;
36001;SDS011;22070;50.922;5.430;2024-03-25T07:27:49;16.20;;;5.53;;
36001;SDS011;22070;50.922;5.430;2024-03-25T07:30:15;16.27;;;5.57;;
36001;SDS011;22070;50.922;5.430;2024-03-25T07:32:42;15.70;;;5.50;;
36001;SDS011;22070;50.922;5.430;2024-03-25T07:35:07;17.63;;;5.93;;
36001;SDS011;22070;50.922;5.430;2024-03-25T07:37:34;16.88;;;6.18;;
36001;SDS011;22070;50.922;5.430;2024-03-25T07:40:00;23.98;;;5.65;;
36001;SDS011;22070;50.922;5.430;2024-03-25T07:42:26;12.30;;;5.55;;
36001;SDS011;22070;50.922;5.430;2024-03-25T07:44:52;25.60;;;5.90;;
36001;SDS011;22070;50.922;5.430;2024-03-25T07:47:18;22.17;;;5.78;;
36001;SDS011;22070;50.922;5.430;2024-03-25T07:49:43;21.27;;;6.07;;
36001;SDS011;22070;50.922;5.430;2024-03-25T07:52:09;17.80;;;4.97;;
36001;SDS011;22070;50.922;5.430;2024-03-25T07:54:35;19.00;;;5.93;;
36001;SDS011;22070;50.922;5.430;2024-03-25T07:57:02;19.38;;;5.45;;
36001;SDS011;22070;50.922;5.430;2024-03-25T07:59:29;15.55;;;5.05;;
36001;SDS011;22070;50.922;5.430;2024-03-25T08:01:54;21.23;;;5.95;;
36001;SDS011;22070;50.922;5.430;2024-03-25T08:04:20;13.27;;;3.55;;
36001;SDS011;22070;50.922;5.430;2024-03-25T08:06:46;19.70;;;5.38;;
36001;SDS011;22070;50.922;5.430;2024-03-25T08:09:11;26.67;;;5.57;;
36001;SDS011;22070;50.922;5.430;2024-03-25T08:11:39;18.25;;;5.63;;
36001;SDS011;22070;50.922;5.430;2024-03-25T08:14:04;23.00;;;5.05;;
36001;SDS011;22070;50.922;5.430;2024-03-25T08:16:30;21.93;;;6.10;;
36001;SDS011;22070;50.922;5.430;2024-03-25T08:18:55;17.38;;;5.47;;
36001;SDS011;22070;50.922;5.430;2024-03-25T08:21:22;21.00;;;5.87;;
36001;SDS011;22070;50.922;5.430;2024-03-25T08:23:48;15.07;;;4.97;;
36001;SDS011;22070;50.922;5.430;2024-03-25T08:26:13;18.92;;;5.40;;
36001;SDS011;22070;50.922;5.430;2024-03-25T08:28:39;11.30;;;2.90;;
36001;SDS011;22070;50.922;5.430;2024-03-25T08:31:05;20.55;;;5.00;;
36001;SDS011;22070;50.922;5.430;2024-03-25T08:33:31;16.40;;;4.93;;
36001;SDS011;22070;50.922;5.430;2024-03-25T08:35:57;13.53;;;5.13;;
36001;SDS011;22070;50.922;5.430;2024-03-25T08:38:22;10.77;;;4.55;;
36001;SDS011;22070;50.922;5.430;2024-03-25T08:40:48;9.97;;;4.13;;
36001;SDS011;22070;50.922;5.430;2024-03-25T08:43:13;13.88;;;5.55;;
36001;SDS011;22070;50.922;5.430;2024-03-25T08:45:39;14.00;;;4.18;;
36001;SDS011;22070;50.922;5.430;2024-03-25T08:48:05;14.47;;;5.77;;
36001;SDS011;22070;50.922;5.430;2024-03-25T08:50:31;12.05;;;4.47;;
36001;SDS011;22070;50.922;5.430;2024-03-25T08:52:57;13.50;;;3.73;;
36001;SDS011;22070;50.922;5.430;2024-03-25T08:55:23;13.10;;;3.75;;
36001;SDS011;22070;50.922;5.430;2024-03-25T08:57:49;11.47;;;3.93;;
36001;SDS011;22070;50.922;5.430;2024-03-25T09:00:14;10.88;;;2.83;;
36001;SDS011;22070;50.922;5.430;2024-03-25T09:02:40;12.80;;;3.92;;
36001;SDS011;22070;50.922;5.430;2024-03-25T09:05:06;8.93;;;3.13;;
36001;SDS011;22070;50.922;5.430;2024-03-25T09:07:33;12.55;;;4.20;;
36001;SDS011;22070;50.922;5.430;2024-03-25T09:09:59;10.17;;;4.33;;
36001;SDS011;22070;50.922;5.430;2024-03-25T09:12:43;13.07;;;4.45;;
36001;SDS011;22070;50.922;5.430;2024-03-25T09:15:10;17.80;;;4.32;;
36001;SDS011;22070;50.922;5.430;2024-03-25T09:17:36;15.35;;;4.95;;
36001;SDS011;22070;50.922;5.430;2024-03-25T09:20:02;12.17;;;5.20;;
36001;SDS011;22070;50.922;5.430;2024-03-25T09:22:45;17.17;;;4.53;;
36001;SDS011;22070;50.922;5.430;2024-03-25T09:25:15;8.57;;;4.53;;
36001;SDS011;22070;50.922;5.430;2024-03-25T09:27:41;15.15;;;4.20;;
36001;SDS011;22070;50.922;5.430;2024-03-25T09:30:16;11.27;;;3.75;;
36001;SDS011;22070;50.922;5.430;2024-03-25T09:32:44;9.45;;;3.90;;
36001;SDS011;22070;50.922;5.430;2024-03-25T09:35:10;17.13;;;4.32;;
36001;SDS011;22070;50.922;5.430;2024-03-25T09:37:36;14.60;;;4.63;;
36001;SDS011;22070;50.922;5.430;2024-03-25T09:40:02;9.77;;;4.13;;
36001;SDS011;22070;50.922;5.430;2024-03-25T09:42:40;11.65;;;3.72;;
36001;SDS011;22070;50.922;5.430;2024-03-25T09:45:12;10.90;;;3.45;;
36001;SDS011;22070;50.922;5.430;2024-03-25T09:47:41;11.20;;;3.67;;
36001;SDS011;22070;50.922;5.430;2024-03-25T09:50:11;11.30;;;3.40;;
36001;SDS011;22070;50.922;5.430;2024-03-25T09:52:38;8.85;;;3.42;;
36001;SDS011;22070;50.922;5.430;2024-03-25T09:55:05;14.98;;;4.40;;
36001;SDS011;22070;50.922;5.430;2024-03-25T09:57:30;7.10;;;3.70;;
36001;SDS011;22070;50.922;5.430;2024-03-25T09:59:56;11.50;;;3.57;;
36001;SDS011;22070;50.922;5.430;2024-03-25T10:02:23;16.90;;;4.22;;
36001;SDS011;22070;50.922;5.430;2024-03-25T10:04:51;11.90;;;3.90;;
36001;SDS011;22070;50.922;5.430;2024-03-25T10:07:23;7.57;;;2.67;;
36001;SDS011;22070;50.922;5.430;2024-03-25T10:09:53;9.63;;;2.90;;
36001;SDS011;22070;50.922;5.430;2024-03-25T10:12:18;10.30;;;3.10;;
36001;SDS011;22070;50.922;5.430;2024-03-25T10:14:45;8.00;;;3.23;;
36001;SDS011;22070;50.922;5.430;2024-03-25T10:17:10;8.37;;;3.47;;
36001;SDS011;22070;50.922;5.430;2024-03-25T10:19:36;9.52;;;3.00;;
36001;SDS011;22070;50.922;5.430;2024-03-25T10:22:03;8.83;;;3.27;;
36001;SDS011;22070;50.922;5.430;2024-03-25T10:24:50;4.35;;;2.80;;
36001;SDS011;22070;50.922;5.430;2024-03-25T10:27:19;10.45;;;3.30;;
36001;SDS011;22070;50.922;5.430;2024-03-25T10:29:46;6.80;;;2.70;;
36001;SDS011;22070;50.922;5.430;2024-03-25T10:32:12;9.18;;;2.47;;
36001;SDS011;22070;50.922;5.430;2024-03-25T10:34:39;5.82;;;3.08;;
36001;SDS011;22070;50.922;5.430;2024-03-25T10:37:05;8.07;;;2.73;;
36001;SDS011;22070;50.922;5.430;2024-03-25T10:39:38;9.07;;;3.13;;
36001;SDS011;22070;50.922;5.430;2024-03-25T10:42:08;8.35;;;3.20;;
36001;SDS011;22070;50.922;5.430;2024-03-25T10:44:38;6.05;;;2.38;;
36001;SDS011;22070;50.922;5.430;2024-03-25T10:47:05;7.10;;;2.58;;
36001;SDS011;22070;50.922;5.430;2024-03-25T10:52:08;9.00;;;3.28;;
36001;SDS011;22070;50.922;5.430;2024-03-25T10:54:36;7.35;;;3.00;;
36001;SDS011;22070;50.922;5.430;2024-03-25T10:57:03;8.63;;;2.83;;
36001;SDS011;22070;50.922;5.430;2024-03-25T10:59:30;6.10;;;2.47;;
36001;SDS011;22070;50.922;5.430;2024-03-25T11:01:56;6.85;;;3.13;;
36001;SDS011;22070;50.922;5.430;2024-03-25T11:04:22;5.47;;;1.90;;
36001;SDS011;22070;50.922;5.430;2024-03-25T11:06:49;6.55;;;3.17;;
36001;SDS011;22070;50.922;5.430;2024-03-25T11:09:21;8.80;;;2.37;;
36001;SDS011;22070;50.922;5.430;2024-03-25T11:11:51;6.87;;;2.37;;
36001;SDS011;22070;50.922;5.430;2024-03-25T11:14:18;7.85;;;2.50;;
36001;SDS011;22070;50.922;5.430;2024-03-25T11:16:50;10.27;;;2.78;;
36001;SDS011;22070;50.922;5.430;2024-03-25T11:19:19;6.45;;;2.10;;
36001;SDS011;22070;50.922;5.430;2024-03-25T11:21:46;3.10;;;1.65;;
36001;SDS011;22070;50.922;5.430;2024-03-25T11:24:12;5.77;;;1.87;;
36001;SDS011;22070;50.922;5.430;2024-03-25T11:26:41;4.10;;;2.08;;
36001;SDS011;22070;50.922;5.430;2024-03-25T11:29:07;7.40;;;1.63;;
36001;SDS011;22070;50.922;5.430;2024-03-25T11:31:33;7.15;;;2.03;;
36001;SDS011;22070;50.922;5.430;2024-03-25T11:34:03;4.30;;;2.15;;
36001;SDS011;22070;50.922;5.430;2024-03-25T11:36:29;4.65;;;1.90;;
36001;SDS011;22070;50.922;5.430;2024-03-25T11:39:14;6.00;;;1.70;;
36001;SDS011;22070;50.922;5.430;2024-03-25T11:41:40;5.82;;;1.95;;
36001;SDS011;22070;50.922;5.430;2024-03-25T11:44:09;3.78;;;1.70;;
36001;SDS011;22070;50.922;5.430;2024-03-25T11:46:38;6.18;;;1.70;;
36001;SDS011;22070;50.922;5.430;2024-03-25T11:51:38;4.00;;;1.63;;
36001;SDS011;22070;50.922;5.430;2024-03-25T11:54:05;5.22;;;1.60;;
36001;SDS011;22070;50.922;5.430;2024-03-25T11:56:31;5.35;;;1.70;;
36001;SDS011;22070;50.922;5.430;2024-03-25T11:58:58;7.33;;;2.17;;
36001;SDS011;22070;50.922;5.430;2024-03-25T12:01:25;4.95;;;1.30;;
36001;SDS011;22070;50.922;5.430;2024-03-25T12:03:51;4.05;;;1.63;;
36001;SDS011;22070;50.922;5.430;2024-03-25T12:06:17;3.63;;;1.30;;
36001;SDS011;22070;50.922;5.430;2024-03-25T12:08:42;3.97;;;1.23;;
36001;SDS011;22070;50.922;5.430;2024-03-25T12:11:31;4.32;;;1.75;;
36001;SDS011;22070;50.922;5.430;2024-03-25T12:13:57;2.97;;;1.77;;
36001;SDS011;22070;50.922;5.430;2024-03-25T12:18:49;2.13;;;1.65;;
36001;SDS011;22070;50.922;5.430;2024-03-25T12:21:15;5.23;;;1.90;;
36001;SDS011;22070;50.922;5.430;2024-03-25T12:23:42;4.38;;;1.65;;
36001;SDS011;22070;50.922;5.430;2024-03-25T12:26:08;6.77;;;2.23;;
36001;SDS011;22070;50.922;5.430;2024-03-25T12:28:34;4.33;;;1.63;;
36001;SDS011;22070;50.922;5.430;2024-03-25T12:31:02;3.08;;;1.67;;
36001;SDS011;22070;50.922;5.430;2024-03-25T12:33:27;4.28;;;1.88;;
36001;SDS011;22070;50.922;5.430;2024-03-25T12:35:53;7.10;;;2.10;;
36001;SDS011;22070;50.922;5.430;2024-03-25T12:38:26;3.97;;;1.70;;
36001;SDS011;22070;50.922;5.430;2024-03-25T12:41:06;4.50;;;1.77;;
36001;SDS011;22070;50.922;5.430;2024-03-25T12:43:36;8.23;;;2.10;;
36001;SDS011;22070;50.922;5.430;2024-03-25T12:46:11;4.18;;;1.30;;
36001;SDS011;22070;50.922;5.430;2024-03-25T12:48:37;2.63;;;1.30;;
36001;SDS011;22070;50.922;5.430;2024-03-25T12:51:03;3.50;;;1.37;;
36001;SDS011;22070;50.922;5.430;2024-03-25T12:53:29;4.25;;;1.00;;
36001;SDS011;22070;50.922;5.430;2024-03-25T12:55:55;1.73;;;1.13;;
36001;SDS011;22070;50.922;5.430;2024-03-25T12:58:21;3.30;;;1.50;;
36001;SDS011;22070;50.922;5.430;2024-03-25T13:00:47;4.47;;;1.70;;
36001;SDS011;22070;50.922;5.430;2024-03-25T13:03:12;2.30;;;1.27;;
36001;SDS011;22070;50.922;5.430;2024-03-25T13:05:38;3.65;;;1.30;;
36001;SDS011;22070;50.922;5.430;2024-03-25T13:08:04;4.00;;;1.40;;
36001;SDS011;22070;50.922;5.430;2024-03-25T13:10:30;2.87;;;1.40;;
36001;SDS011;22070;50.922;5.430;2024-03-25T13:12:56;1.63;;;1.43;;
36001;SDS011;22070;50.922;5.430;2024-03-25T13:15:22;5.88;;;1.25;;
36001;SDS011;22070;50.922;5.430;2024-03-25T13:17:48;5.30;;;1.30;;
36001;SDS011;22070;50.922;5.430;2024-03-25T13:20:13;1.93;;;1.23;;
36001;SDS011;22070;50.922;5.430;2024-03-25T13:22:39;4.37;;;1.50;;
36001;SDS011;22070;50.922;5.430;2024-03-25T13:25:08;2.47;;;1.60;;
36001;SDS011;22070;50.922;5.430;2024-03-25T13:27:34;3.88;;;1.48;;
36001;SDS011;22070;50.922;5.430;2024-03-25T13:30:00;2.33;;;1.40;;
36001;SDS011;22070;50.922;5.430;2024-03-25T13:32:25;2.43;;;1.30;;
36001;SDS011;22070;50.922;5.430;2024-03-25T13:34:51;2.90;;;1.40;;
36001;SDS011;22070;50.922;5.430;2024-03-25T13:37:17;6.70;;;1.83;;
36001;SDS011;22070;50.922;5.430;2024-03-25T13:39:42;3.30;;;1.27;;
36001;SDS011;22070;50.922;5.430;2024-03-25T13:42:08;4.47;;;1.73;;
36001;SDS011;22070;50.922;5.430;2024-03-25T13:44:34;6.67;;;1.70;;
36001;SDS011;22070;50.922;5.430;2024-03-25T13:46:59;2.67;;;1.20;;
36001;SDS011;22070;50.922;5.430;2024-03-25T13:49:26;1.63;;;1.23;;
36001;SDS011;22070;50.922;5.430;2024-03-25T13:51:56;2.03;;;1.30;;
36001;SDS011;22070;50.922;5.430;2024-03-25T13:54:27;2.58;;;1.40;;
36001;SDS011;22070;50.922;5.430;2024-03-25T13:56:53;7.70;;;1.70;;
36001;SDS011;22070;50.922;5.430;2024-03-25T13:59:18;8.33;;;1.30;;
36001;SDS011;22070;50.922;5.430;2024-03-25T14:01:44;5.20;;;1.50;;
36001;SDS011;22070;50.922;5.430;2024-03-25T14:04:10;2.23;;;1.30;;
36001;SDS011;22070;50.922;5.430;2024-03-25T14:06:36;2.17;;;1.30;;
36001;SDS011;22070;50.922;5.430;2024-03-25T14:09:02;5.13;;;1.25;;
36001;SDS011;22070;50.922;5.430;2024-03-25T14:11:35;2.65;;;1.20;;
36001;SDS011;22070;50.922;5.430;2024-03-25T14:14:01;3.42;;;1.30;;
36001;SDS011;22070;50.922;5.430;2024-03-25T14:16:30;2.73;;;1.13;;
36001;SDS011;22070;50.922;5.430;2024-03-25T14:18:56;3.03;;;1.33;;
36001;SDS011;22070;50.922;5.430;2024-03-25T14:21:21;1.20;;;1.03;;
36001;SDS011;22070;50.922;5.430;2024-03-25T14:23:47;3.00;;;1.47;;
36001;SDS011;22070;50.922;5.430;2024-03-25T14:26:13;2.97;;;1.10;;
36001;SDS011;22070;50.922;5.430;2024-03-25T14:28:42;3.17;;;1.47;;
36001;SDS011;22070;50.922;5.430;2024-03-25T14:31:07;2.50;;;1.10;;
36001;SDS011;22070;50.922;5.430;2024-03-25T14:33:33;1.33;;;1.13;;
36001;SDS011;22070;50.922;5.430;2024-03-25T14:35:59;5.47;;;0.93;;
36001;SDS011;22070;50.922;5.430;2024-03-25T14:38:25;4.67;;;1.27;;
36001;SDS011;22070;50.922;5.430;2024-03-25T14:40:50;4.50;;;1.33;;
36001;SDS011;22070;50.922;5.430;2024-03-25T14:43:18;4.30;;;1.38;;
36001;SDS011;22070;50.922;5.430;2024-03-25T14:48:10;3.40;;;1.45;;
36001;SDS011;22070;50.922;5.430;2024-03-25T14:50:36;2.17;;;1.53;;
36001;SDS011;22070;50.922;5.430;2024-03-25T14:53:02;3.10;;;1.27;;
36001;SDS011;22070;50.922;5.430;2024-03-25T14:55:28;5.93;;;1.60;;
36001;SDS011;22070;50.922;5.430;2024-03-25T14:57:54;3.45;;;1.50;;
36001;SDS011;22070;50.922;5.430;2024-03-25T15:00:20;4.80;;;1.57;;
36001;SDS011;22070;50.922;5.430;2024-03-25T15:02:46;3.03;;;1.10;;
36001;SDS011;22070;50.922;5.430;2024-03-25T15:05:12;3.53;;;1.83;;
36001;SDS011;22070;50.922;5.430;2024-03-25T15:07:38;2.53;;;1.20;;